sensor_id;sensor_type;location;lat;lon;timestamp;P1;durP1;ratioP1;P2;durP2;ratioP2
21274;SDS011;36472;52.170;20.884;2023-11-21T00:00:16;19.48;;;12.73;;
21274;SDS011;36472;52.170;20.884;2023-11-21T00:03:06;18.65;;;13.57;;
21274;SDS011;36472;52.170;20.884;2023-11-21T00:05:38;19.65;;;13.45;;
21274;SDS011;36472;52.170;20.884;2023-11-21T00:08:08;19.77;;;13.52;;
21274;SDS011;36472;52.170;20.884;2023-11-21T00:10:37;20.75;;;14.65;;
21274;SDS011;36472;52.170;20.884;2023-11-21T00:13:06;20.70;;;13.45;;
21274;SDS011;36472;52.170;20.884;2023-11-21T00:15:35;20.63;;;13.45;;
21274;SDS011;36472;52.170;20.884;2023-11-21T00:18:04;20.58;;;14.65;;
21274;SDS011;36472;52.170;20.884;2023-11-21T00:20:34;23.40;;;15.73;;
21274;SDS011;36472;52.170;20.884;2023-11-21T00:23:04;22.50;;;14.73;;
21274;SDS011;36472;52.170;20.884;2023-11-21T00:25:34;21.27;;;14.48;;
21274;SDS011;36472;52.170;20.884;2023-11-21T00:28:03;21.88;;;15.60;;
21274;SDS011;36472;52.170;20.884;2023-11-21T00:30:33;27.30;;;17.38;;
21274;SDS011;36472;52.170;20.884;2023-11-21T00:33:02;29.77;;;18.08;;
21274;SDS011;36472;52.170;20.884;2023-11-21T00:35:31;27.65;;;17.70;;
21274;SDS011;36472;52.170;20.884;2023-11-21T00:38:00;24.50;;;17.80;;
21274;SDS011;36472;52.170;20.884;2023-11-21T00:40:33;27.77;;;17.60;;
21274;SDS011;36472;52.170;20.884;2023-11-21T00:43:02;26.35;;;16.48;;
21274;SDS011;36472;52.170;20.884;2023-11-21T00:45:32;24.50;;;16.88;;
21274;SDS011;36472;52.170;20.884;2023-11-21T00:48:03;32.10;;;18.48;;
21274;SDS011;36472;52.170;20.884;2023-11-21T00:50:33;29.98;;;19.45;;
21274;SDS011;36472;52.170;20.884;2023-11-21T00:53:01;28.00;;;16.77;;
21274;SDS011;36472;52.170;20.884;2023-11-21T00:55:30;26.23;;;17.70;;
21274;SDS011;36472;52.170;20.884;2023-11-21T00:58:01;25.55;;;17.63;;
21274;SDS011;36472;52.170;20.884;2023-11-21T01:00:31;27.80;;;17.77;;
21274;SDS011;36472;52.170;20.884;2023-11-21T01:03:00;26.63;;;17.38;;
21274;SDS011;36472;52.170;20.884;2023-11-21T01:05:30;28.30;;;18.50;;
21274;SDS011;36472;52.170;20.884;2023-11-21T01:07:59;31.23;;;19.55;;
21274;SDS011;36472;52.170;20.884;2023-11-21T01:10:28;28.55;;;18.15;;
21274;SDS011;36472;52.170;20.884;2023-11-21T01:12:57;27.83;;;17.85;;
21274;SDS011;36472;52.170;20.884;2023-11-21T01:15:28;28.92;;;19.20;;
21274;SDS011;36472;52.170;20.884;2023-11-21T01:17:56;28.05;;;18.48;;
21274;SDS011;36472;52.170;20.884;2023-11-21T01:20:26;32.22;;;19.73;;
21274;SDS011;36472;52.170;20.884;2023-11-21T01:22:55;29.90;;;19.65;;
21274;SDS011;36472;52.170;20.884;2023-11-21T01:25:24;33.15;;;20.30;;
21274;SDS011;36472;52.170;20.884;2023-11-21T01:27:53;28.27;;;19.77;;
21274;SDS011;36472;52.170;20.884;2023-11-21T01:30:22;30.80;;;18.60;;
21274;SDS011;36472;52.170;20.884;2023-11-21T01:32:53;28.17;;;19.20;;
21274;SDS011;36472;52.170;20.884;2023-11-21T01:35:23;27.35;;;18.05;;
21274;SDS011;36472;52.170;20.884;2023-11-21T01:37:52;29.58;;;18.80;;
21274;SDS011;36472;52.170;20.884;2023-11-21T01:40:21;30.92;;;19.05;;
21274;SDS011;36472;52.170;20.884;2023-11-21T01:42:52;31.75;;;18.73;;
21274;SDS011;36472;52.170;20.884;2023-11-21T01:45:22;29.70;;;19.30;;
21274;SDS011;36472;52.170;20.884;2023-11-21T01:47:51;32.55;;;19.77;;
21274;SDS011;36472;52.170;20.884;2023-11-21T01:50:23;29.33;;;17.85;;
21274;SDS011;36472;52.170;20.884;2023-11-21T01:52:53;28.17;;;18.55;;
21274;SDS011;36472;52.170;20.884;2023-11-21T01:55:23;25.80;;;18.30;;
21274;SDS011;36472;52.170;20.884;2023-11-21T01:57:55;26.30;;;17.97;;
21274;SDS011;36472;52.170;20.884;2023-11-21T02:00:25;30.35;;;19.25;;
21274;SDS011;36472;52.170;20.884;2023-11-21T02:02:58;28.42;;;18.55;;
21274;SDS011;36472;52.170;20.884;2023-11-21T02:05:27;31.40;;;19.05;;
21274;SDS011;36472;52.170;20.884;2023-11-21T02:07:58;31.17;;;19.35;;
21274;SDS011;36472;52.170;20.884;2023-11-21T02:10:28;29.73;;;18.73;;
21274;SDS011;36472;52.170;20.884;2023-11-21T02:12:59;30.73;;;18.90;;
21274;SDS011;36472;52.170;20.884;2023-11-21T02:15:30;32.13;;;18.70;;
21274;SDS011;36472;52.170;20.884;2023-11-21T02:18:00;27.83;;;18.42;;
21274;SDS011;36472;52.170;20.884;2023-11-21T02:20:30;32.42;;;19.33;;
21274;SDS011;36472;52.170;20.884;2023-11-21T02:23:04;27.30;;;17.65;;
21274;SDS011;36472;52.170;20.884;2023-11-21T02:25:34;27.97;;;18.10;;
21274;SDS011;36472;52.170;20.884;2023-11-21T02:28:04;26.60;;;17.33;;
21274;SDS011;36472;52.170;20.884;2023-11-21T02:30:34;21.63;;;15.48;;
21274;SDS011;36472;52.170;20.884;2023-11-21T02:33:04;25.58;;;16.88;;
21274;SDS011;36472;52.170;20.884;2023-11-21T02:35:33;23.98;;;16.17;;
21274;SDS011;36472;52.170;20.884;2023-11-21T02:38:02;25.45;;;16.27;;
21274;SDS011;36472;52.170;20.884;2023-11-21T02:40:33;25.25;;;15.27;;
21274;SDS011;36472;52.170;20.884;2023-11-21T02:43:02;21.17;;;15.53;;
21274;SDS011;36472;52.170;20.884;2023-11-21T02:45:33;21.60;;;15.32;;
21274;SDS011;36472;52.170;20.884;2023-11-21T02:48:02;22.45;;;15.27;;
21274;SDS011;36472;52.170;20.884;2023-11-21T02:50:31;19.73;;;14.27;;
21274;SDS011;36472;52.170;20.884;2023-11-21T02:53:02;20.50;;;15.02;;
21274;SDS011;36472;52.170;20.884;2023-11-21T02:55:34;22.00;;;14.30;;
21274;SDS011;36472;52.170;20.884;2023-11-21T02:58:03;20.47;;;13.73;;
21274;SDS011;36472;52.170;20.884;2023-11-21T03:00:33;22.55;;;14.55;;
21274;SDS011;36472;52.170;20.884;2023-11-21T03:03:02;21.23;;;14.83;;
21274;SDS011;36472;52.170;20.884;2023-11-21T03:05:31;21.27;;;14.50;;
21274;SDS011;36472;52.170;20.884;2023-11-21T03:08:02;19.15;;;14.63;;
21274;SDS011;36472;52.170;20.884;2023-11-21T03:10:32;24.70;;;16.10;;
21274;SDS011;36472;52.170;20.884;2023-11-21T03:13:02;21.02;;;15.52;;
21274;SDS011;36472;52.170;20.884;2023-11-21T03:15:32;20.85;;;14.75;;
21274;SDS011;36472;52.170;20.884;2023-11-21T03:18:02;19.67;;;13.53;;
21274;SDS011;36472;52.170;20.884;2023-11-21T03:20:32;20.02;;;13.85;;
21274;SDS011;36472;52.170;20.884;2023-11-21T03:23:02;19.85;;;14.63;;
21274;SDS011;36472;52.170;20.884;2023-11-21T03:25:32;19.90;;;14.27;;
21274;SDS011;36472;52.170;20.884;2023-11-21T03:28:02;23.75;;;14.88;;
21274;SDS011;36472;52.170;20.884;2023-11-21T03:30:32;21.60;;;15.13;;
21274;SDS011;36472;52.170;20.884;2023-11-21T03:33:00;21.00;;;14.98;;
21274;SDS011;36472;52.170;20.884;2023-11-21T03:35:30;20.73;;;15.73;;
21274;SDS011;36472;52.170;20.884;2023-11-21T03:37:59;20.35;;;15.10;;
21274;SDS011;36472;52.170;20.884;2023-11-21T03:40:29;23.95;;;15.63;;
21274;SDS011;36472;52.170;20.884;2023-11-21T03:43:00;22.20;;;15.52;;
21274;SDS011;36472;52.170;20.884;2023-11-21T03:45:31;21.23;;;14.60;;
21274;SDS011;36472;52.170;20.884;2023-11-21T03:48:00;21.80;;;15.30;;
21274;SDS011;36472;52.170;20.884;2023-11-21T03:50:29;21.40;;;15.18;;
21274;SDS011;36472;52.170;20.884;2023-11-21T03:52:58;21.40;;;15.18;;
21274;SDS011;36472;52.170;20.884;2023-11-21T03:55:29;21.20;;;15.02;;
21274;SDS011;36472;52.170;20.884;2023-11-21T03:57:59;24.80;;;14.85;;
21274;SDS011;36472;52.170;20.884;2023-11-21T04:00:30;21.55;;;15.18;;
21274;SDS011;36472;52.170;20.884;2023-11-21T04:02:59;23.67;;;14.97;;
21274;SDS011;36472;52.170;20.884;2023-11-21T04:05:28;22.65;;;15.48;;
21274;SDS011;36472;52.170;20.884;2023-11-21T04:07:58;22.30;;;15.65;;
21274;SDS011;36472;52.170;20.884;2023-11-21T04:10:27;19.30;;;14.30;;
21274;SDS011;36472;52.170;20.884;2023-11-21T04:12:55;21.80;;;15.10;;
21274;SDS011;36472;52.170;20.884;2023-11-21T04:15:25;23.02;;;15.20;;
21274;SDS011;36472;52.170;20.884;2023-11-21T04:17:55;21.40;;;14.97;;
21274;SDS011;36472;52.170;20.884;2023-11-21T04:20:24;22.02;;;15.27;;
21274;SDS011;36472;52.170;20.884;2023-11-21T04:22:54;21.80;;;14.65;;
21274;SDS011;36472;52.170;20.884;2023-11-21T04:25:23;19.37;;;14.03;;
21274;SDS011;36472;52.170;20.884;2023-11-21T04:27:52;22.65;;;14.82;;
21274;SDS011;36472;52.170;20.884;2023-11-21T04:30:21;22.97;;;14.43;;
21274;SDS011;36472;52.170;20.884;2023-11-21T04:32:50;20.15;;;13.40;;
21274;SDS011;36472;52.170;20.884;2023-11-21T04:35:20;20.70;;;14.27;;
21274;SDS011;36472;52.170;20.884;2023-11-21T04:37:49;20.02;;;13.25;;
21274;SDS011;36472;52.170;20.884;2023-11-21T04:40:19;17.65;;;13.25;;
21274;SDS011;36472;52.170;20.884;2023-11-21T04:42:48;20.17;;;14.35;;
21274;SDS011;36472;52.170;20.884;2023-11-21T04:45:17;20.48;;;14.10;;
21274;SDS011;36472;52.170;20.884;2023-11-21T04:47:46;18.70;;;12.05;;
21274;SDS011;36472;52.170;20.884;2023-11-21T04:50:15;17.83;;;11.97;;
21274;SDS011;36472;52.170;20.884;2023-11-21T04:52:45;15.65;;;11.77;;
21274;SDS011;36472;52.170;20.884;2023-11-21T04:55:15;16.40;;;12.63;;
21274;SDS011;36472;52.170;20.884;2023-11-21T04:57:43;17.73;;;12.80;;
21274;SDS011;36472;52.170;20.884;2023-11-21T05:00:14;17.90;;;12.77;;
21274;SDS011;36472;52.170;20.884;2023-11-21T05:02:44;16.33;;;12.47;;
21274;SDS011;36472;52.170;20.884;2023-11-21T05:05:14;17.40;;;11.88;;
21274;SDS011;36472;52.170;20.884;2023-11-21T05:07:43;15.98;;;11.55;;
21274;SDS011;36472;52.170;20.884;2023-11-21T05:10:14;14.35;;;10.55;;
21274;SDS011;36472;52.170;20.884;2023-11-21T05:12:43;15.80;;;11.67;;
21274;SDS011;36472;52.170;20.884;2023-11-21T05:15:14;14.88;;;11.15;;
21274;SDS011;36472;52.170;20.884;2023-11-21T05:17:44;17.57;;;11.90;;
21274;SDS011;36472;52.170;20.884;2023-11-21T05:20:17;14.60;;;10.13;;
21274;SDS011;36472;52.170;20.884;2023-11-21T05:22:49;13.77;;;11.17;;
21274;SDS011;36472;52.170;20.884;2023-11-21T05:25:19;14.83;;;11.53;;
21274;SDS011;36472;52.170;20.884;2023-11-21T05:27:48;15.50;;;11.30;;
21274;SDS011;36472;52.170;20.884;2023-11-21T05:30:17;16.80;;;11.67;;
21274;SDS011;36472;52.170;20.884;2023-11-21T05:32:45;18.67;;;11.17;;
21274;SDS011;36472;52.170;20.884;2023-11-21T05:35:17;15.70;;;11.17;;
21274;SDS011;36472;52.170;20.884;2023-11-21T05:37:45;15.38;;;10.95;;
21274;SDS011;36472;52.170;20.884;2023-11-21T05:40:16;14.33;;;11.33;;
21274;SDS011;36472;52.170;20.884;2023-11-21T05:42:45;16.33;;;11.40;;
21274;SDS011;36472;52.170;20.884;2023-11-21T05:45:15;16.92;;;11.65;;
21274;SDS011;36472;52.170;20.884;2023-11-21T05:47:46;16.93;;;12.00;;
21274;SDS011;36472;52.170;20.884;2023-11-21T05:50:16;15.20;;;11.60;;
21274;SDS011;36472;52.170;20.884;2023-11-21T05:52:45;15.53;;;11.93;;
21274;SDS011;36472;52.170;20.884;2023-11-21T05:55:17;16.63;;;11.80;;
21274;SDS011;36472;52.170;20.884;2023-11-21T05:57:48;16.25;;;11.32;;
21274;SDS011;36472;52.170;20.884;2023-11-21T06:00:17;15.77;;;11.30;;
21274;SDS011;36472;52.170;20.884;2023-11-21T06:02:49;14.80;;;10.17;;
21274;SDS011;36472;52.170;20.884;2023-11-21T06:05:21;15.10;;;10.90;;
21274;SDS011;36472;52.170;20.884;2023-11-21T06:07:53;14.03;;;9.43;;
21274;SDS011;36472;52.170;20.884;2023-11-21T06:10:27;11.82;;;9.73;;
21274;SDS011;36472;52.170;20.884;2023-11-21T06:12:56;13.48;;;9.70;;
21274;SDS011;36472;52.170;20.884;2023-11-21T06:15:30;14.30;;;10.02;;
21274;SDS011;36472;52.170;20.884;2023-11-21T06:17:59;14.50;;;10.60;;
21274;SDS011;36472;52.170;20.884;2023-11-21T06:20:28;12.80;;;9.32;;
21274;SDS011;36472;52.170;20.884;2023-11-21T06:22:57;11.73;;;9.93;;
21274;SDS011;36472;52.170;20.884;2023-11-21T06:25:32;16.90;;;11.37;;
21274;SDS011;36472;52.170;20.884;2023-11-21T06:28:03;14.07;;;9.95;;
21274;SDS011;36472;52.170;20.884;2023-11-21T06:30:32;13.70;;;10.07;;
21274;SDS011;36472;52.170;20.884;2023-11-21T06:33:01;12.50;;;9.57;;
21274;SDS011;36472;52.170;20.884;2023-11-21T06:35:31;14.40;;;10.00;;
21274;SDS011;36472;52.170;20.884;2023-11-21T06:38:01;14.23;;;10.43;;
21274;SDS011;36472;52.170;20.884;2023-11-21T06:40:34;13.17;;;9.97;;
21274;SDS011;36472;52.170;20.884;2023-11-21T06:43:03;13.83;;;9.87;;
21274;SDS011;36472;52.170;20.884;2023-11-21T06:45:34;15.13;;;10.83;;
21274;SDS011;36472;52.170;20.884;2023-11-21T06:48:03;14.63;;;11.20;;
21274;SDS011;36472;52.170;20.884;2023-11-21T06:50:32;15.93;;;11.18;;
21274;SDS011;36472;52.170;20.884;2023-11-21T06:53:01;14.30;;;10.43;;
21274;SDS011;36472;52.170;20.884;2023-11-21T06:55:35;13.50;;;9.80;;
21274;SDS011;36472;52.170;20.884;2023-11-21T06:58:04;13.17;;;9.60;;
21274;SDS011;36472;52.170;20.884;2023-11-21T07:00:33;13.63;;;10.03;;
21274;SDS011;36472;52.170;20.884;2023-11-21T07:03:02;14.57;;;9.82;;
21274;SDS011;36472;52.170;20.884;2023-11-21T07:05:31;12.32;;;9.18;;
21274;SDS011;36472;52.170;20.884;2023-11-21T07:08:00;11.65;;;9.18;;
21274;SDS011;36472;52.170;20.884;2023-11-21T07:10:32;11.18;;;8.80;;
21274;SDS011;36472;52.170;20.884;2023-11-21T07:13:03;12.67;;;8.67;;
21274;SDS011;36472;52.170;20.884;2023-11-21T07:15:32;14.97;;;9.17;;
21274;SDS011;36472;52.170;20.884;2023-11-21T07:18:01;12.50;;;8.60;;
21274;SDS011;36472;52.170;20.884;2023-11-21T07:20:31;13.48;;;9.40;;
21274;SDS011;36472;52.170;20.884;2023-11-21T07:23:00;15.53;;;9.53;;
21274;SDS011;36472;52.170;20.884;2023-11-21T07:25:29;12.70;;;9.77;;
21274;SDS011;36472;52.170;20.884;2023-11-21T07:27:58;13.43;;;9.20;;
21274;SDS011;36472;52.170;20.884;2023-11-21T07:30:29;11.25;;;8.20;;
21274;SDS011;36472;52.170;20.884;2023-11-21T07:32:58;11.83;;;9.40;;
21274;SDS011;36472;52.170;20.884;2023-11-21T07:35:28;14.27;;;9.68;;
21274;SDS011;36472;52.170;20.884;2023-11-21T07:37:56;12.13;;;9.30;;
21274;SDS011;36472;52.170;20.884;2023-11-21T07:40:26;11.97;;;9.00;;
21274;SDS011;36472;52.170;20.884;2023-11-21T07:42:58;13.30;;;9.27;;
21274;SDS011;36472;52.170;20.884;2023-11-21T07:45:29;13.03;;;9.47;;
21274;SDS011;36472;52.170;20.884;2023-11-21T07:47:58;12.23;;;8.87;;
21274;SDS011;36472;52.170;20.884;2023-11-21T07:50:28;14.23;;;9.53;;
21274;SDS011;36472;52.170;20.884;2023-11-21T07:52:57;13.13;;;8.53;;
21274;SDS011;36472;52.170;20.884;2023-11-21T07:55:26;12.10;;;9.40;;
21274;SDS011;36472;52.170;20.884;2023-11-21T07:57:59;12.18;;;9.20;;
21274;SDS011;36472;52.170;20.884;2023-11-21T08:00:29;12.73;;;9.93;;
21274;SDS011;36472;52.170;20.884;2023-11-21T08:02:58;12.57;;;8.67;;
21274;SDS011;36472;52.170;20.884;2023-11-21T08:05:27;11.95;;;9.38;;
21274;SDS011;36472;52.170;20.884;2023-11-21T08:08:03;12.30;;;8.97;;
21274;SDS011;36472;52.170;20.884;2023-11-21T08:10:33;11.97;;;9.43;;
21274;SDS011;36472;52.170;20.884;2023-11-21T08:13:02;12.85;;;9.48;;
21274;SDS011;36472;52.170;20.884;2023-11-21T08:15:33;11.67;;;9.30;;
21274;SDS011;36472;52.170;20.884;2023-11-21T08:18:04;12.23;;;8.90;;
21274;SDS011;36472;52.170;20.884;2023-11-21T08:20:35;12.02;;;10.02;;
21274;SDS011;36472;52.170;20.884;2023-11-21T08:23:05;14.43;;;9.03;;
21274;SDS011;36472;52.170;20.884;2023-11-21T08:25:34;13.70;;;10.10;;
21274;SDS011;36472;52.170;20.884;2023-11-21T08:28:04;13.07;;;10.23;;
21274;SDS011;36472;52.170;20.884;2023-11-21T08:30:34;12.37;;;9.63;;
21274;SDS011;36472;52.170;20.884;2023-11-21T08:33:02;12.15;;;8.32;;
21274;SDS011;36472;52.170;20.884;2023-11-21T08:35:31;11.50;;;9.27;;
21274;SDS011;36472;52.170;20.884;2023-11-21T08:38:00;12.00;;;8.68;;
21274;SDS011;36472;52.170;20.884;2023-11-21T08:40:30;13.30;;;9.73;;
21274;SDS011;36472;52.170;20.884;2023-11-21T08:42:59;15.85;;;9.25;;
21274;SDS011;36472;52.170;20.884;2023-11-21T08:45:31;12.77;;;9.30;;
21274;SDS011;36472;52.170;20.884;2023-11-21T08:48:02;12.43;;;9.80;;
21274;SDS011;36472;52.170;20.884;2023-11-21T08:50:32;12.27;;;9.45;;
21274;SDS011;36472;52.170;20.884;2023-11-21T08:53:01;18.47;;;10.77;;
21274;SDS011;36472;52.170;20.884;2023-11-21T08:55:30;15.17;;;10.53;;
21274;SDS011;36472;52.170;20.884;2023-11-21T08:58:04;14.10;;;11.05;;
21274;SDS011;36472;52.170;20.884;2023-11-21T09:00:34;14.10;;;10.38;;
21274;SDS011;36472;52.170;20.884;2023-11-21T09:03:05;14.37;;;10.10;;
21274;SDS011;36472;52.170;20.884;2023-11-21T09:05:37;14.77;;;9.90;;
21274;SDS011;36472;52.170;20.884;2023-11-21T09:08:07;14.17;;;9.67;;
21274;SDS011;36472;52.170;20.884;2023-11-21T09:10:36;15.13;;;10.93;;
21274;SDS011;36472;52.170;20.884;2023-11-21T09:13:06;14.47;;;11.10;;
21274;SDS011;36472;52.170;20.884;2023-11-21T09:15:36;16.47;;;10.97;;
21274;SDS011;36472;52.170;20.884;2023-11-21T09:18:06;16.63;;;10.17;;
21274;SDS011;36472;52.170;20.884;2023-11-21T09:20:35;15.67;;;10.87;;
21274;SDS011;36472;52.170;20.884;2023-11-21T09:23:04;15.77;;;11.20;;
21274;SDS011;36472;52.170;20.884;2023-11-21T09:25:34;15.57;;;10.97;;
21274;SDS011;36472;52.170;20.884;2023-11-21T09:28:04;15.47;;;10.87;;
21274;SDS011;36472;52.170;20.884;2023-11-21T09:30:35;18.13;;;11.80;;
21274;SDS011;36472;52.170;20.884;2023-11-21T09:33:06;15.63;;;11.73;;
21274;SDS011;36472;52.170;20.884;2023-11-21T09:35:38;15.80;;;10.73;;
21274;SDS011;36472;52.170;20.884;2023-11-21T09:38:07;18.77;;;11.90;;
21274;SDS011;36472;52.170;20.884;2023-11-21T09:40:38;16.03;;;11.87;;
21274;SDS011;36472;52.170;20.884;2023-11-21T09:43:08;16.33;;;10.53;;
21274;SDS011;36472;52.170;20.884;2023-11-21T09:45:46;16.63;;;12.60;;
21274;SDS011;36472;52.170;20.884;2023-11-21T09:48:21;18.87;;;12.13;;
21274;SDS011;36472;52.170;20.884;2023-11-21T09:50:54;14.60;;;11.67;;
21274;SDS011;36472;52.170;20.884;2023-11-21T09:53:22;15.45;;;11.20;;
21274;SDS011;36472;52.170;20.884;2023-11-21T09:55:57;18.77;;;12.80;;
21274;SDS011;36472;52.170;20.884;2023-11-21T09:58:27;19.27;;;12.97;;
21274;SDS011;36472;52.170;20.884;2023-11-21T10:00:57;19.02;;;12.32;;
21274;SDS011;36472;52.170;20.884;2023-11-21T10:03:31;19.03;;;12.33;;
21274;SDS011;36472;52.170;20.884;2023-11-21T10:06:06;16.60;;;12.50;;
21274;SDS011;36472;52.170;20.884;2023-11-21T10:08:37;21.60;;;15.37;;
21274;SDS011;36472;52.170;20.884;2023-11-21T10:11:19;18.37;;;13.30;;
21274;SDS011;36472;52.170;20.884;2023-11-21T10:13:52;29.13;;;18.90;;
21274;SDS011;36472;52.170;20.884;2023-11-21T10:16:25;46.65;;;26.27;;
21274;SDS011;36472;52.170;20.884;2023-11-21T10:18:57;42.13;;;25.42;;
21274;SDS011;36472;52.170;20.884;2023-11-21T10:21:38;35.67;;;20.20;;
21274;SDS011;36472;52.170;20.884;2023-11-21T10:24:07;23.10;;;16.60;;
21274;SDS011;36472;52.170;20.884;2023-11-21T10:26:37;30.85;;;18.83;;
21274;SDS011;36472;52.170;20.884;2023-11-21T10:29:19;26.73;;;17.30;;
21274;SDS011;36472;52.170;20.884;2023-11-21T10:31:49;25.98;;;18.65;;
21274;SDS011;36472;52.170;20.884;2023-11-21T10:34:23;21.03;;;14.67;;
21274;SDS011;36472;52.170;20.884;2023-11-21T10:36:54;22.55;;;14.25;;
21274;SDS011;36472;52.170;20.884;2023-11-21T10:39:25;24.45;;;15.48;;
21274;SDS011;36472;52.170;20.884;2023-11-21T10:41:58;24.33;;;14.80;;
21274;SDS011;36472;52.170;20.884;2023-11-21T10:44:27;23.73;;;13.45;;
21274;SDS011;36472;52.170;20.884;2023-11-21T10:46:57;19.67;;;14.23;;
21274;SDS011;36472;52.170;20.884;2023-11-21T10:49:29;16.45;;;13.20;;
21274;SDS011;36472;52.170;20.884;2023-11-21T10:51:59;18.23;;;13.27;;
21274;SDS011;36472;52.170;20.884;2023-11-21T10:54:28;17.63;;;12.73;;
21274;SDS011;36472;52.170;20.884;2023-11-21T10:56:58;17.88;;;12.85;;
21274;SDS011;36472;52.170;20.884;2023-11-21T10:59:29;16.90;;;12.40;;
21274;SDS011;36472;52.170;20.884;2023-11-21T11:02:00;16.87;;;12.00;;
21274;SDS011;36472;52.170;20.884;2023-11-21T11:04:49;15.70;;;11.43;;
21274;SDS011;36472;52.170;20.884;2023-11-21T11:07:25;17.17;;;12.65;;
21274;SDS011;36472;52.170;20.884;2023-11-21T11:09:58;20.07;;;13.20;;
21274;SDS011;36472;52.170;20.884;2023-11-21T11:12:28;40.13;;;21.83;;
21274;SDS011;36472;52.170;20.884;2023-11-21T11:14:57;21.23;;;14.63;;
21274;SDS011;36472;52.170;20.884;2023-11-21T11:17:29;23.70;;;16.03;;
21274;SDS011;36472;52.170;20.884;2023-11-21T11:20:01;23.83;;;15.97;;
21274;SDS011;36472;52.170;20.884;2023-11-21T11:22:35;21.30;;;15.23;;
21274;SDS011;36472;52.170;20.884;2023-11-21T11:25:22;28.40;;;19.10;;
21274;SDS011;36472;52.170;20.884;2023-11-21T11:28:07;21.73;;;14.40;;
21274;SDS011;36472;52.170;20.884;2023-11-21T11:30:42;24.10;;;15.17;;
21274;SDS011;36472;52.170;20.884;2023-11-21T11:33:33;24.20;;;15.47;;
21274;SDS011;36472;52.170;20.884;2023-11-21T11:36:15;20.70;;;13.90;;
21274;SDS011;36472;52.170;20.884;2023-11-21T11:38:54;21.10;;;15.88;;
21274;SDS011;36472;52.170;20.884;2023-11-21T11:41:26;20.30;;;13.13;;
21274;SDS011;36472;52.170;20.884;2023-11-21T11:43:59;21.65;;;14.38;;
21274;SDS011;36472;52.170;20.884;2023-11-21T11:46:41;20.70;;;14.90;;
21274;SDS011;36472;52.170;20.884;2023-11-21T11:49:23;21.27;;;14.45;;
21274;SDS011;36472;52.170;20.884;2023-11-21T11:55:08;22.40;;;14.13;;
21274;SDS011;36472;52.170;20.884;2023-11-21T11:57:39;18.25;;;12.90;;
21274;SDS011;36472;52.170;20.884;2023-11-21T12:00:13;22.27;;;14.80;;
21274;SDS011;36472;52.170;20.884;2023-11-21T12:02:46;18.17;;;12.90;;
21274;SDS011;36472;52.170;20.884;2023-11-21T12:05:19;21.67;;;14.88;;
21274;SDS011;36472;52.170;20.884;2023-11-21T12:07:51;18.75;;;14.05;;
21274;SDS011;36472;52.170;20.884;2023-11-21T12:10:23;27.77;;;16.00;;
21274;SDS011;36472;52.170;20.884;2023-11-21T12:12:55;22.03;;;14.93;;
21274;SDS011;36472;52.170;20.884;2023-11-21T12:15:27;21.33;;;13.55;;
21274;SDS011;36472;52.170;20.884;2023-11-21T12:17:58;19.92;;;14.30;;
21274;SDS011;36472;52.170;20.884;2023-11-21T12:20:28;19.00;;;14.32;;
21274;SDS011;36472;52.170;20.884;2023-11-21T12:22:59;22.17;;;15.13;;
21274;SDS011;36472;52.170;20.884;2023-11-21T12:25:29;19.63;;;14.70;;
21274;SDS011;36472;52.170;20.884;2023-11-21T12:28:00;19.77;;;14.55;;
21274;SDS011;36472;52.170;20.884;2023-11-21T12:30:32;22.13;;;15.23;;
21274;SDS011;36472;52.170;20.884;2023-11-21T12:33:03;22.20;;;13.43;;
21274;SDS011;36472;52.170;20.884;2023-11-21T12:35:34;20.70;;;15.00;;
21274;SDS011;36472;52.170;20.884;2023-11-21T12:38:05;19.13;;;12.85;;
21274;SDS011;36472;52.170;20.884;2023-11-21T12:40:36;21.00;;;14.68;;
21274;SDS011;36472;52.170;20.884;2023-11-21T12:43:06;24.33;;;14.90;;
21274;SDS011;36472;52.170;20.884;2023-11-21T12:45:36;22.30;;;14.63;;
21274;SDS011;36472;52.170;20.884;2023-11-21T12:48:06;20.87;;;15.33;;
21274;SDS011;36472;52.170;20.884;2023-11-21T12:50:37;20.42;;;14.52;;
21274;SDS011;36472;52.170;20.884;2023-11-21T12:53:08;19.90;;;12.67;;
21274;SDS011;36472;52.170;20.884;2023-11-21T12:55:40;23.53;;;14.47;;
21274;SDS011;36472;52.170;20.884;2023-11-21T12:58:09;23.80;;;14.87;;
21274;SDS011;36472;52.170;20.884;2023-11-21T13:00:41;22.10;;;14.43;;
21274;SDS011;36472;52.170;20.884;2023-11-21T13:03:13;22.03;;;15.00;;
21274;SDS011;36472;52.170;20.884;2023-11-21T13:05:47;21.80;;;15.67;;
21274;SDS011;36472;52.170;20.884;2023-11-21T13:08:21;21.43;;;14.07;;
21274;SDS011;36472;52.170;20.884;2023-11-21T13:10:54;25.17;;;16.07;;
21274;SDS011;36472;52.170;20.884;2023-11-21T13:13:25;20.80;;;14.53;;
21274;SDS011;36472;52.170;20.884;2023-11-21T13:15:59;21.50;;;14.63;;
21274;SDS011;36472;52.170;20.884;2023-11-21T13:18:31;23.30;;;15.20;;
21274;SDS011;36472;52.170;20.884;2023-11-21T13:21:01;21.43;;;15.17;;
21274;SDS011;36472;52.170;20.884;2023-11-21T13:23:38;20.77;;;14.35;;
21274;SDS011;36472;52.170;20.884;2023-11-21T13:26:10;21.83;;;14.33;;
21274;SDS011;36472;52.170;20.884;2023-11-21T13:28:39;26.90;;;15.93;;
21274;SDS011;36472;52.170;20.884;2023-11-21T13:31:14;23.23;;;14.57;;
21274;SDS011;36472;52.170;20.884;2023-11-21T13:33:52;22.75;;;15.18;;
21274;SDS011;36472;52.170;20.884;2023-11-21T13:36:26;20.07;;;15.03;;
21274;SDS011;36472;52.170;20.884;2023-11-21T13:39:00;21.30;;;14.50;;
21274;SDS011;36472;52.170;20.884;2023-11-21T13:41:34;23.20;;;13.77;;
21274;SDS011;36472;52.170;20.884;2023-11-21T13:44:05;22.63;;;15.48;;
21274;SDS011;36472;52.170;20.884;2023-11-21T13:46:44;19.70;;;14.38;;
21274;SDS011;36472;52.170;20.884;2023-11-21T13:49:13;20.75;;;14.75;;
21274;SDS011;36472;52.170;20.884;2023-11-21T13:51:43;20.83;;;15.67;;
21274;SDS011;36472;52.170;20.884;2023-11-21T13:54:16;22.55;;;16.50;;
21274;SDS011;36472;52.170;20.884;2023-11-21T13:56:47;22.48;;;14.57;;
21274;SDS011;36472;52.170;20.884;2023-11-21T13:59:17;19.55;;;14.90;;
21274;SDS011;36472;52.170;20.884;2023-11-21T14:01:50;23.35;;;15.93;;
21274;SDS011;36472;52.170;20.884;2023-11-21T14:04:25;22.40;;;15.10;;
21274;SDS011;36472;52.170;20.884;2023-11-21T14:07:18;24.27;;;16.50;;
21274;SDS011;36472;52.170;20.884;2023-11-21T14:09:54;24.10;;;15.77;;
21274;SDS011;36472;52.170;20.884;2023-11-21T14:12:25;25.17;;;17.63;;
21274;SDS011;36472;52.170;20.884;2023-11-21T14:14:56;24.43;;;16.90;;
21274;SDS011;36472;52.170;20.884;2023-11-21T14:17:25;22.60;;;15.67;;
21274;SDS011;36472;52.170;20.884;2023-11-21T14:19:54;26.27;;;17.33;;
21274;SDS011;36472;52.170;20.884;2023-11-21T14:22:23;30.40;;;18.27;;
21274;SDS011;36472;52.170;20.884;2023-11-21T14:24:55;29.17;;;18.43;;
21274;SDS011;36472;52.170;20.884;2023-11-21T14:27:27;26.02;;;17.23;;
21274;SDS011;36472;52.170;20.884;2023-11-21T14:29:56;25.80;;;17.33;;
21274;SDS011;36472;52.170;20.884;2023-11-21T14:32:26;25.70;;;16.90;;
21274;SDS011;36472;52.170;20.884;2023-11-21T14:34:55;26.38;;;18.63;;